Time;durP1;ratioP1;P1;durP2;ratioP2;P2;SDS_P1;SDS_P2;PMS_P1;PMS_P2;Temp;Humidity;BMP_temperature;BMP_pressure;BME280_temperature;BME280_humidity;BME280_pressure;Samples;Min_cycle;Max_cycle;Signal;HPM_P1;HPM_P2
2020/12/20 00:00:37;;;;;;;18.10;3.47;;;;;;;10.34;69.74;99663.00;6213958;23;20062;-91
2020/12/20 00:03:03;;;;;;;16.02;2.65;;;;;;;10.26;69.76;99666.19;6186667;23;20490;-90
2020/12/20 00:05:29;;;;;;;21.95;2.88;;;;;;;10.24;69.53;99665.47;6187334;23;20086;-91
2020/12/20 00:07:54;;;;;;;21.83;2.65;;;;;;;10.15;69.22;99672.28;6213884;23;20427;-91
2020/12/20 00:10:21;;;;;;;22.33;2.75;;;;;;;10.10;70.16;99680.50;6187121;23;20470;-91
2020/12/20 00:12:46;;;;;;;16.80;3.08;;;;;;;10.10;69.83;99684.91;6186425;23;20004;-90
2020/12/20 00:15:13;;;;;;;15.30;2.92;;;;;;;9.91;69.52;99686.34;6213755;23;20058;-90
2020/12/20 00:17:38;;;;;;;25.98;3.63;;;;;;;9.79;69.62;99686.44;6211790;23;19996;-91
2020/12/20 00:20:06;;;;;;;19.17;3.35;;;;;;;9.87;69.47;99679.66;6212252;23;20075;-91
2020/12/20 00:22:31;;;;;;;11.63;1.85;;;;;;;9.89;69.47;99693.50;6186123;23;20384;-90
2020/12/20 00:24:56;;;;;;;18.17;3.83;;;;;;;9.83;68.90;99686.06;6186638;23;20005;-91
2020/12/20 00:27:24;;;;;;;15.63;2.83;;;;;;;9.88;68.33;99697.06;6187035;23;20013;-91
2020/12/20 00:29:49;;;;;;;13.02;2.38;;;;;;;9.95;67.86;99693.97;6213072;23;20076;-90
2020/12/20 00:32:14;;;;;;;17.40;2.50;;;;;;;9.86;67.43;99696.34;6213096;23;20483;-91
2020/12/20 00:34:40;;;;;;;13.80;2.22;;;;;;;9.71;68.70;99700.94;6186786;23;20032;-90
2020/12/20 00:37:06;;;;;;;8.93;1.90;;;;;;;9.71;68.18;99694.88;6213407;23;20030;-90
2020/12/20 00:39:32;;;;;;;11.55;1.48;;;;;;;9.66;67.97;99699.66;6186170;23;20004;-90
2020/12/20 00:42:00;;;;;;;11.73;1.80;;;;;;;9.77;66.76;99704.91;6186917;23;20024;-90
2020/12/20 00:44:26;;;;;;;10.10;2.65;;;;;;;9.79;68.10;99697.75;6213197;23;20001;-90
2020/12/20 00:46:53;;;;;;;16.20;2.10;;;;;;;9.79;67.89;99696.91;6212363;23;20024;-90
2020/12/20 00:49:19;;;;;;;14.82;2.60;;;;;;;9.72;68.86;99704.44;6188751;23;20454;-90
2020/12/20 00:51:44;;;;;;;12.65;1.55;;;;;;;9.65;68.18;99701.41;6189112;23;20001;-90
2020/12/20 00:54:10;;;;;;;10.50;1.67;;;;;;;9.65;68.00;99693.56;6189121;23;20016;-90
2020/12/20 00:56:36;;;;;;;15.85;2.08;;;;;;;9.71;67.33;99700.13;6189418;23;20028;-90
2020/12/20 00:59:01;;;;;;;11.02;1.58;;;;;;;9.59;67.49;99701.06;6188765;23;20004;-90
2020/12/20 01:01:27;;;;;;;19.13;2.83;;;;;;;9.53;68.52;99697.09;6188111;23;20424;-90
2020/12/20 01:03:53;;;;;;;7.22;2.17;;;;;;;9.59;67.64;99701.88;6188116;23;20007;-90
2020/12/20 01:06:21;;;;;;;11.48;1.77;;;;;;;9.56;68.12;99707.38;6187564;23;20039;-90
2020/12/20 01:08:47;;;;;;;13.85;3.55;;;;;;;9.58;68.42;99704.59;6186120;23;20074;-90
2020/12/20 01:11:13;;;;;;;14.98;2.97;;;;;;;9.57;67.34;99708.19;6188449;23;19993;-90
2020/12/20 01:13:42;;;;;;;17.27;2.20;;;;;;;9.60;67.57;99700.94;6187621;23;20005;-90
2020/12/20 01:16:16;;;;;;;12.10;2.08;;;;;;;9.61;68.22;99707.00;6214934;23;20062;-90
2020/12/20 01:18:42;;;;;;;12.43;1.85;;;;;;;9.64;66.93;99698.94;6215482;23;20046;-90
2020/12/20 01:21:08;;;;;;;9.50;1.95;;;;;;;9.65;67.68;99705.81;6188146;23;20009;-90
2020/12/20 01:23:33;;;;;;;13.55;2.53;;;;;;;9.66;67.32;99704.91;6189455;23;19997;-90
2020/12/20 01:25:59;;;;;;;8.10;1.73;;;;;;;9.73;67.51;99708.69;6215580;23;20015;-90
2020/12/20 01:28:24;;;;;;;9.10;1.70;;;;;;;9.63;67.91;99708.56;6214433;23;20028;-90
2020/12/20 01:30:52;;;;;;;11.23;1.92;;;;;;;9.68;67.24;99700.38;6187830;23;20370;-90
2020/12/20 01:33:17;;;;;;;15.65;1.85;;;;;;;9.66;66.70;99707.50;6213757;23;20000;-90
2020/12/20 01:35:42;;;;;;;17.58;1.83;;;;;;;9.50;68.07;99703.41;6187857;23;20063;-90
2020/12/20 01:38:08;;;;;;;8.90;1.38;;;;;;;9.59;68.02;99701.88;6214881;23;20005;-90
2020/12/20 01:40:33;;;;;;;14.05;2.35;;;;;;;9.45;68.27;99705.53;6214908;23;20001;-90
2020/12/20 01:42:58;;;;;;;5.53;2.28;;;;;;;9.76;67.56;99702.41;6188575;23;20015;-90
2020/12/20 01:45:24;;;;;;;13.55;2.25;;;;;;;9.79;67.55;99705.63;6188121;23;20031;-90
2020/12/20 01:47:49;;;;;;;7.97;1.60;;;;;;;9.70;68.39;99696.66;6214818;23;20485;-90
2020/12/20 01:50:15;;;;;;;9.15;1.27;;;;;;;9.80;67.80;99709.91;6188804;23;20000;-90
2020/12/20 01:52:41;;;;;;;8.57;1.70;;;;;;;9.77;67.93;99701.44;6214774;23;20026;-90
2020/12/20 01:55:07;;;;;;;10.75;1.83;;;;;;;9.83;67.79;99698.34;6188428;23;20502;-90
2020/12/20 01:57:34;;;;;;;12.35;2.50;;;;;;;9.82;67.29;99702.78;6215211;23;20036;-90
2020/12/20 01:59:59;;;;;;;11.85;2.00;;;;;;;9.83;67.82;99707.06;6188475;23;20004;-90
2020/12/20 02:02:25;;;;;;;11.10;1.90;;;;;;;9.88;68.30;99710.16;6214930;23;20069;-90
2020/12/20 02:04:50;;;;;;;12.00;2.30;;;;;;;9.90;67.61;99707.44;6213390;23;20001;-90
2020/12/20 02:07:16;;;;;;;8.88;1.83;;;;;;;9.91;67.67;99707.31;6187679;23;20016;-90
2020/12/20 02:09:44;;;;;;;17.92;1.95;;;;;;;9.80;68.72;99706.47;6188381;23;20024;-90
2020/12/20 02:12:09;;;;;;;16.75;1.90;;;;;;;9.93;68.46;99699.31;6215378;23;20027;-90
2020/12/20 02:14:34;;;;;;;18.83;2.65;;;;;;;10.00;67.67;99710.19;6188058;23;19996;-90
2020/12/20 02:17:00;;;;;;;11.90;1.90;;;;;;;9.96;68.59;99717.47;6212940;23;19992;-90
2020/12/20 02:19:26;;;;;;;15.00;1.88;;;;;;;9.93;68.90;99708.03;6214590;23;20035;-90
2020/12/20 02:21:51;;;;;;;16.90;2.22;;;;;;;9.69;69.76;99715.13;6214473;23;20001;-90
2020/12/20 02:24:17;;;;;;;13.88;2.47;;;;;;;9.71;69.79;99705.38;6188269;23;20092;-89
2020/12/20 02:26:43;;;;;;;20.00;2.50;;;;;;;9.78;69.88;99703.97;6187632;23;20306;-89
2020/12/20 02:29:09;;;;;;;8.95;1.60;;;;;;;9.80;69.83;99717.78;6188506;23;20079;-90
2020/12/20 02:31:34;;;;;;;10.13;2.25;;;;;;;9.79;69.86;99713.47;6187286;23;20366;-90
2020/12/20 02:34:00;;;;;;;14.05;2.08;;;;;;;9.69;70.29;99718.59;6214366;23;20004;-89
2020/12/20 02:36:25;;;;;;;8.98;1.88;;;;;;;9.77;70.27;99715.38;6187471;23;20036;-90
2020/12/20 02:38:51;;;;;;;22.92;3.28;;;;;;;9.60;71.16;99724.53;6213725;23;20001;-90
2020/12/20 02:41:17;;;;;;;13.38;2.10;;;;;;;9.72;70.16;99720.97;6187073;23;20120;-90
2020/12/20 02:43:42;;;;;;;20.45;2.67;;;;;;;9.62;70.32;99721.81;6187121;23;20009;-90
2020/12/20 02:46:07;;;;;;;10.40;2.00;;;;;;;9.72;69.51;99714.91;6187653;23;20347;-90
2020/12/20 02:48:33;;;;;;;18.85;2.92;;;;;;;9.79;69.04;99718.72;6187657;23;20008;-90
2020/12/20 02:50:58;;;;;;;18.08;2.72;;;;;;;9.62;70.16;99727.03;6187481;23;20011;-90
2020/12/20 02:53:24;;;;;;;12.43;2.25;;;;;;;9.64;69.91;99717.28;6213231;23;20008;-90
2020/12/20 02:55:49;;;;;;;12.95;2.28;;;;;;;9.68;70.28;99729.19;6187505;23;20014;-90
2020/12/20 02:58:15;;;;;;;9.57;1.92;;;;;;;9.63;69.89;99734.78;6214553;23;20000;-89
2020/12/20 03:00:40;;;;;;;18.95;2.17;;;;;;;9.52;70.28;99732.13;6214363;23;20271;-90
2020/12/20 03:03:06;;;;;;;12.50;1.95;;;;;;;9.58;70.10;99725.56;6213877;23;20083;-90
2020/12/20 03:05:31;;;;;;;17.48;3.78;;;;;;;9.48;69.52;99739.38;6213867;23;20050;-90
2020/12/20 03:07:57;;;;;;;13.15;1.60;;;;;;;9.56;69.59;99737.97;6187309;23;20022;-90
2020/12/20 03:10:22;;;;;;;8.55;2.53;;;;;;;9.51;69.05;99741.75;6214027;23;20001;-90
2020/12/20 03:12:48;;;;;;;13.00;2.03;;;;;;;9.53;69.00;99739.03;6187317;23;20008;-90
2020/12/20 03:15:13;;;;;;;14.68;2.00;;;;;;;9.49;68.77;99733.19;6188108;23;20004;-90
2020/12/20 03:17:39;;;;;;;11.70;1.95;;;;;;;9.49;69.32;99725.31;6214164;23;20355;-90
2020/12/20 03:20:05;;;;;;;11.23;1.40;;;;;;;9.51;69.33;99728.66;6214191;23;20001;-90
2020/12/20 03:22:30;;;;;;;9.98;1.60;;;;;;;9.40;69.65;99728.63;6188457;23;20001;-90
2020/12/20 03:24:56;;;;;;;11.40;1.60;;;;;;;9.29;69.25;99725.97;6214217;23;20013;-90
2020/12/20 03:27:21;;;;;;;10.57;2.00;;;;;;;9.29;69.54;99731.19;6214114;23;20008;-91
2020/12/20 03:29:46;;;;;;;7.18;2.13;;;;;;;9.32;69.84;99723.09;6214109;23;20054;-89
2020/12/20 03:32:12;;;;;;;17.80;1.90;;;;;;;9.20;69.47;99731.88;6213431;23;19996;-89
2020/12/20 03:34:37;;;;;;;10.00;3.15;;;;;;;9.23;69.93;99729.03;6214396;23;20080;-90
2020/12/20 03:37:03;;;;;;;12.05;2.00;;;;;;;9.16;70.09;99726.00;6213799;23;20455;-90
2020/12/20 03:39:29;;;;;;;7.15;1.33;;;;;;;9.11;69.84;99734.22;6213963;23;19996;-90
2020/12/20 03:41:55;;;;;;;10.80;1.80;;;;;;;9.03;69.89;99733.94;6187695;23;20015;-90
2020/12/20 03:44:20;;;;;;;7.80;1.20;;;;;;;9.18;69.67;99742.44;6213701;23;20000;-90
2020/12/20 03:46:45;;;;;;;14.52;1.60;;;;;;;9.17;69.31;99743.41;6187660;23;20008;-90
2020/12/20 03:49:11;;;;;;;7.07;1.08;;;;;;;9.15;69.33;99761.03;6187125;23;20435;-89
2020/12/20 03:51:36;;;;;;;7.60;1.33;;;;;;;9.05;68.85;99745.13;6214198;23;20495;-90
2020/12/20 03:54:03;;;;;;;21.67;2.30;;;;;;;8.99;69.47;99745.59;6213015;23;20008;-90
2020/12/20 03:56:29;;;;;;;11.70;1.05;;;;;;;9.01;69.20;99748.94;6187052;23;20004;-90
2020/12/20 03:58:54;;;;;;;7.93;1.60;;;;;;;8.99;68.92;99750.00;6187538;23;20008;-90
2020/12/20 04:01:19;;;;;;;5.72;1.00;;;;;;;8.93;69.44;99753.88;6213138;23;20386;-90
2020/12/20 04:03:45;;;;;;;6.07;1.08;;;;;;;8.93;69.76;99762.56;6186608;23;20092;-90
2020/12/20 04:06:10;;;;;;;13.00;1.23;;;;;;;8.85;69.17;99775.38;6186529;23;20016;-89
2020/12/20 04:08:35;;;;;;;12.32;1.70;;;;;;;8.85;68.92;99771.91;6187479;23;20004;-90
2020/12/20 04:11:01;;;;;;;6.68;1.15;;;;;;;8.84;69.82;99778.09;6186477;23;20474;-90
2020/12/20 04:13:26;;;;;;;6.70;0.95;;;;;;;8.80;69.76;99787.94;6187030;23;20004;-90
2020/12/20 04:15:51;;;;;;;6.18;1.20;;;;;;;8.81;68.54;99796.66;6214276;23;20027;-90
2020/12/20 04:18:17;;;;;;;9.48;1.75;;;;;;;8.69;70.46;99791.31;6214317;23;20084;-88
2020/12/20 04:20:42;;;;;;;5.00;1.13;;;;;;;8.72;69.74;99795.50;6212459;23;20005;-90
2020/12/20 04:23:07;;;;;;;8.38;1.45;;;;;;;8.65;69.64;99800.31;6188255;23;20327;-90
2020/12/20 04:25:33;;;;;;;9.07;1.38;;;;;;;8.40;69.45;99797.69;6212645;23;20331;-90
2020/12/20 04:27:58;;;;;;;5.00;0.70;;;;;;;8.51;70.53;99787.34;6213144;23;20301;-90
2020/12/20 04:30:24;;;;;;;9.18;1.13;;;;;;;8.64;70.14;99793.41;6186712;23;20079;-90
2020/12/20 04:32:49;;;;;;;7.93;1.08;;;;;;;8.57;69.85;99789.56;6186276;23;20032;-90
2020/12/20 04:35:15;;;;;;;15.85;1.58;;;;;;;8.66;69.83;99781.03;6213098;23;20068;-90
2020/12/20 04:37:40;;;;;;;6.25;1.17;;;;;;;8.60;70.01;99791.13;6213770;23;20103;-89
2020/12/20 04:40:06;;;;;;;13.13;1.50;;;;;;;8.34;70.86;99791.09;6186987;23;20007;-90
2020/12/20 04:42:31;;;;;;;3.13;0.70;;;;;;;8.24;70.44;99787.44;6213769;23;20032;-91
2020/12/20 04:44:57;;;;;;;3.38;0.60;;;;;;;8.20;69.92;99789.44;6213262;23;20487;-90
2020/12/20 04:47:22;;;;;;;9.23;1.60;;;;;;;8.10;71.28;99804.91;6213703;23;20008;-90
2020/12/20 04:49:48;;;;;;;13.70;1.42;;;;;;;7.97;71.50;99808.44;6213586;23;20008;-90
2020/12/20 04:52:17;;;;;;;9.45;1.30;;;;;;;7.93;71.53;99792.94;6213625;23;20004;-90
2020/12/20 04:54:44;;;;;;;11.70;1.10;;;;;;;8.07;71.52;99807.72;6213809;23;20004;-90
2020/12/20 04:57:10;;;;;;;8.77;1.13;;;;;;;8.03;71.85;99802.81;6187162;23;20031;-90
2020/12/20 04:59:36;;;;;;;11.95;1.40;;;;;;;8.00;72.71;99801.22;6213382;23;19993;-89
2020/12/20 05:02:02;;;;;;;12.48;1.27;;;;;;;8.13;71.13;99806.47;6186238;23;20012;-90
2020/12/20 05:04:27;;;;;;;4.07;1.13;;;;;;;8.23;70.69;99806.69;6186518;23;20054;-90
2020/12/20 05:06:53;;;;;;;6.93;2.03;;;;;;;8.23;70.58;99809.28;6186739;23;20032;-90
2020/12/20 05:09:18;;;;;;;10.38;1.77;;;;;;;8.04;70.26;99809.72;6187405;23;20275;-90
2020/12/20 05:11:44;;;;;;;6.43;2.00;;;;;;;8.06;71.52;99807.84;6186680;23;20063;-89
2020/12/20 05:14:13;;;;;;;5.15;1.25;;;;;;;8.14;70.91;99810.78;6213398;23;20550;-90
2020/12/20 05:16:39;;;;;;;14.13;1.33;;;;;;;8.10;71.63;99815.38;6213716;23;20072;-89
2020/12/20 05:19:07;;;;;;;9.95;1.70;;;;;;;8.11;70.58;99816.19;6186756;23;20275;-89
2020/12/20 05:21:34;;;;;;;6.18;0.93;;;;;;;8.14;71.25;99818.63;6186675;23;20058;-90
2020/12/20 05:24:00;;;;;;;14.30;1.65;;;;;;;8.10;71.41;99819.75;6213817;23;20005;-90
2020/12/20 05:26:31;;;;;;;8.25;1.90;;;;;;;8.09;71.41;99833.75;6186904;23;20462;-89
2020/12/20 05:29:08;;;;;;;12.57;1.50;;;;;;;8.14;71.35;99824.69;6213367;23;19997;-90
2020/12/20 05:31:33;;;;;;;8.40;1.00;;;;;;;8.08;71.78;99826.88;6185995;23;20335;-90
2020/12/20 05:33:59;;;;;;;6.63;1.20;;;;;;;8.04;71.36;99830.63;6187447;23;20011;-90
2020/12/20 05:36:26;;;;;;;8.60;1.60;;;;;;;8.00;71.34;99824.78;6215926;23;20408;-90
2020/12/20 05:38:51;;;;;;;13.98;2.00;;;;;;;7.98;71.61;99831.88;6214696;23;20016;-90
2020/12/20 05:41:28;;;;;;;14.18;2.05;;;;;;;8.03;71.30;99829.78;6215309;23;20000;-90
2020/12/20 05:44:19;;;;;;;9.35;1.40;;;;;;;8.11;71.71;99821.41;6188387;23;20005;-89
2020/12/20 05:46:46;;;;;;;4.65;0.85;;;;;;;8.05;70.93;99827.88;6215412;23;20011;-89
2020/12/20 05:49:13;;;;;;;11.60;1.80;;;;;;;8.09;71.84;99829.34;6188217;23;20008;-90
2020/12/20 05:51:39;;;;;;;7.88;1.35;;;;;;;8.09;71.36;99829.34;6215511;23;20461;-89
2020/12/20 05:54:13;;;;;;;5.63;1.05;;;;;;;8.05;71.84;99822.66;6188524;23;20095;-89
2020/12/20 05:56:39;;;;;;;8.95;1.13;;;;;;;8.06;72.10;99824.34;6214933;23;20063;-90
2020/12/20 05:59:11;;;;;;;11.77;1.42;;;;;;;8.09;71.78;99825.91;6189123;23;20443;-90
2020/12/20 06:01:38;;;;;;;11.07;1.23;;;;;;;8.03;71.73;99832.38;6214120;23;19997;-89
2020/12/20 06:04:04;;;;;;;3.63;1.05;;;;;;;7.95;71.46;99832.06;6214464;23;20000;-90
2020/12/20 06:06:34;;;;;;;8.63;1.35;;;;;;;7.90;72.75;99819.31;6187991;23;20363;-90
2020/12/20 06:09:02;;;;;;;9.13;1.23;;;;;;;7.92;72.82;99825.28;6214629;23;20005;-90
2020/12/20 06:11:30;;;;;;;10.38;1.30;;;;;;;7.91;72.84;99820.97;6214675;23;20070;-90
2020/12/20 06:13:59;;;;;;;17.02;2.22;;;;;;;8.05;72.71;99827.88;6188615;23;20038;-89
2020/12/20 06:16:26;;;;;;;13.13;1.95;;;;;;;7.94;71.55;99831.22;6187919;23;20004;-89
2020/12/20 06:19:02;;;;;;;10.85;1.27;;;;;;;7.75;71.80;99838.59;6215041;23;20001;-90
2020/12/20 06:21:51;;;;;;;9.25;1.27;;;;;;;7.75;72.41;99842.03;6214900;23;20029;-90
2020/12/20 06:24:21;;;;;;;16.60;1.33;;;;;;;7.68;72.99;99845.16;6215980;23;20009;-89
2020/12/20 06:26:50;;;;;;;6.93;0.82;;;;;;;7.81;72.46;99842.59;6212149;23;20001;-89
2020/12/20 06:29:19;;;;;;;14.02;1.65;;;;;;;7.88;73.26;99847.31;6214941;23;20054;-89
2020/12/20 06:31:47;;;;;;;20.20;2.00;;;;;;;8.02;73.85;99842.97;6187994;23;20011;-89
2020/12/20 06:34:16;;;;;;;16.35;2.22;;;;;;;8.09;73.75;99834.59;6187800;23;20031;-88
2020/12/20 06:36:45;;;;;;;4.68;0.80;;;;;;;8.21;73.54;99838.16;6213862;23;20064;-88
2020/12/20 06:39:10;;;;;;;8.55;1.70;;;;;;;8.25;73.26;99851.88;6187354;23;20490;-89
2020/12/20 06:41:37;;;;;;;13.15;1.77;;;;;;;8.30;73.11;99848.00;6214395;23;20005;-89
2020/12/20 06:44:13;;;;;;;6.25;1.45;;;;;;;8.41;73.01;99854.28;6214254;23;20007;-89
2020/12/20 06:46:40;;;;;;;17.83;2.25;;;;;;;8.50;72.60;99843.25;6215305;23;20096;-89
2020/12/20 06:49:40;;;;;;;17.55;2.88;;;;;;;8.64;72.17;99845.75;6213912;23;20046;-90
2020/12/20 06:52:27;;;;;;;13.50;1.83;;;;;;;8.57;71.92;99849.75;6214453;23;20005;-89
2020/12/20 06:55:09;;;;;;;12.90;2.13;;;;;;;8.52;72.50;99857.06;6214625;23;20000;-90
2020/12/20 06:57:36;;;;;;;14.35;1.40;;;;;;;8.56;71.92;99862.94;6188216;23;20013;-91
2020/12/20 07:00:04;;;;;;;13.18;1.85;;;;;;;8.50;72.13;99862.38;6188066;23;20005;-90
2020/12/20 07:02:59;;;;;;;17.50;2.78;;;;;;;8.57;71.39;99860.22;6187694;23;20322;-91
2020/12/20 07:05:40;;;;;;;9.40;1.55;;;;;;;8.48;71.56;99863.44;6162222;23;20312;-89
2020/12/20 07:08:09;;;;;;;10.85;1.63;;;;;;;8.43;72.01;99865.53;6214274;23;20023;-89
2020/12/20 07:10:43;;;;;;;10.82;2.60;;;;;;;8.46;71.93;99862.72;6214680;23;20462;-89
2020/12/20 07:13:11;;;;;;;14.20;1.70;;;;;;;8.41;71.94;99875.22;6212004;23;20331;-89
2020/12/20 07:15:44;;;;;;;13.43;2.45;;;;;;;8.44;72.03;99881.13;6186878;23;20000;-88
2020/12/20 07:18:10;;;;;;;14.32;1.90;;;;;;;8.48;72.58;99881.75;6187755;23;20080;-89
2020/12/20 07:20:35;;;;;;;20.02;2.20;;;;;;;8.46;72.86;99883.66;6214048;23;20024;-89
2020/12/20 07:23:00;;;;;;;12.43;2.00;;;;;;;8.46;72.71;99879.25;6187715;23;20084;-89
2020/12/20 07:25:28;;;;;;;12.60;2.00;;;;;;;8.51;72.35;99886.78;6213741;23;20054;-89
2020/12/20 07:27:53;;;;;;;16.30;3.33;;;;;;;8.52;72.08;99872.75;6213571;23;20064;-88
2020/12/20 07:30:19;;;;;;;12.45;2.35;;;;;;;8.51;72.56;99876.31;6214178;23;20423;-88
2020/12/20 07:32:44;;;;;;;11.07;1.45;;;;;;;8.46;71.95;99883.66;6213624;23;20334;-88
2020/12/20 07:35:13;;;;;;;11.57;1.30;;;;;;;8.33;72.40;99892.28;6213942;23;20004;-87
2020/12/20 07:37:51;;;;;;;17.33;1.67;;;;;;;8.40;72.47;99884.03;6213909;23;20008;-87
2020/12/20 07:40:18;;;;;;;8.45;1.92;;;;;;;8.36;72.28;99887.78;6213748;23;20004;-88
2020/12/20 07:42:44;;;;;;;12.93;1.73;;;;;;;8.38;72.27;99896.38;6212279;23;20011;-88
2020/12/20 07:45:12;;;;;;;12.98;1.42;;;;;;;8.39;72.69;99892.81;6187176;23;20008;-88
2020/12/20 07:47:38;;;;;;;8.52;2.33;;;;;;;8.44;73.27;99901.22;6213497;23;20008;-88
2020/12/20 07:50:03;;;;;;;17.05;1.85;;;;;;;8.56;72.91;99903.00;6213032;23;20005;-88
2020/12/20 07:52:28;;;;;;;13.68;1.85;;;;;;;8.56;72.06;99905.63;6213908;23;20005;-88
2020/12/20 07:55:00;;;;;;;22.95;2.20;;;;;;;8.64;72.70;99905.09;6214047;23;20001;-88
2020/12/20 07:57:27;;;;;;;10.23;1.83;;;;;;;8.72;72.71;99906.25;6185995;23;20046;-88
2020/12/20 08:00:06;;;;;;;8.77;1.85;;;;;;;8.89;72.60;99912.97;6186885;23;20011;-89
2020/12/20 08:02:32;;;;;;;12.82;1.90;;;;;;;8.91;71.42;99915.47;6187273;23;20000;-88
2020/12/20 08:05:14;;;;;;;13.23;2.03;;;;;;;8.92;71.37;99935.47;6213760;23;20008;-88
2020/12/20 08:07:39;;;;;;;10.50;1.63;;;;;;;8.83;72.67;99929.09;6187024;23;20371;-88
2020/12/20 08:10:06;;;;;;;16.75;1.95;;;;;;;8.92;71.78;99933.69;6187011;23;20008;-88
2020/12/20 08:12:34;;;;;;;14.23;1.95;;;;;;;8.92;72.08;99944.16;6212284;23;19997;-87
2020/12/20 08:15:09;;;;;;;13.13;2.10;;;;;;;8.87;71.35;99938.41;6213687;23;20042;-87
2020/12/20 08:17:35;;;;;;;12.90;1.85;;;;;;;9.03;71.17;99947.84;6213755;23;20000;-88
2020/12/20 08:20:04;;;;;;;18.45;1.77;;;;;;;8.90;70.87;99937.34;6187209;23;20419;-88
2020/12/20 08:22:33;;;;;;;13.02;1.75;;;;;;;8.80;71.16;99934.53;6213625;23;20032;-88
2020/12/20 08:25:07;;;;;;;14.75;2.60;;;;;;;8.75;71.92;99941.88;6186427;23;20009;-88
2020/12/20 19:35:11;;;;;;;17.33;5.35;;;;;;;8.55;72.12;100359.31;5072524;28;20551;-88
2020/12/20 19:37:37;;;;;;;15.73;6.15;;;;;;;8.51;72.21;100358.63;5049179;28;20025;-89
2020/12/20 19:40:04;;;;;;;29.27;10.07;;;;;;;8.52;72.98;100364.72;5056840;28;20055;-87
2020/12/20 19:42:31;;;;;;;21.15;7.68;;;;;;;8.40;70.91;100371.47;5068820;28;20394;-88
2020/12/20 19:44:56;;;;;;;21.50;7.75;;;;;;;8.30;72.33;100372.97;5068316;28;20016;-88
2020/12/20 19:47:21;;;;;;;18.27;7.32;;;;;;;8.34;72.33;100370.06;5068489;28;20025;-88
2020/12/20 19:49:47;;;;;;;17.60;7.22;;;;;;;8.34;71.93;100361.38;5068569;28;20025;-88
2020/12/20 19:52:13;;;;;;;21.88;6.53;;;;;;;8.38;72.13;100375.97;5068869;28;20679;-89
2020/12/20 19:54:42;;;;;;;27.55;8.20;;;;;;;8.45;71.92;100373.84;5029042;28;20407;-88
2020/12/20 19:57:07;;;;;;;21.75;7.45;;;;;;;8.51;70.93;100368.25;5026804;28;20033;-88
2020/12/20 19:59:33;;;;;;;15.65;6.57;;;;;;;8.43;71.22;100366.09;5028754;28;20117;-88
2020/12/20 20:01:59;;;;;;;16.35;4.78;;;;;;;8.37;71.81;100370.81;5028654;28;20033;-88
2020/12/20 20:04:24;;;;;;;24.20;4.82;;;;;;;8.37;71.66;100365.59;5027603;28;20535;-88
2020/12/20 20:06:51;;;;;;;24.75;6.18;;;;;;;8.47;71.53;100366.75;5028663;28;20030;-88
2020/12/20 20:09:16;;;;;;;27.33;8.57;;;;;;;8.48;72.06;100368.44;5026684;28;20029;-88
2020/12/20 20:11:42;;;;;;;34.92;9.07;;;;;;;8.51;71.50;100363.00;5028591;28;20495;-88
2020/12/20 20:14:08;;;;;;;44.47;19.02;;;;;;;8.53;71.52;100356.75;5027443;28;20018;-88
2020/12/20 20:16:34;;;;;;;31.15;10.77;;;;;;;8.56;72.20;100352.28;5028389;28;20391;-88
2020/12/20 20:19:03;;;;;;;27.25;6.55;;;;;;;8.55;72.07;100351.44;5027503;28;20030;-88
2020/12/20 20:21:30;;;;;;;20.02;5.45;;;;;;;8.59;71.65;100346.84;5028243;28;20037;-88
2020/12/20 20:23:57;;;;;;;24.13;5.05;;;;;;;8.59;71.94;100347.72;5028014;28;20475;-88
2020/12/20 20:26:27;;;;;;;13.40;4.05;;;;;;;8.58;70.76;100343.41;5027785;28;20028;-88
2020/12/20 20:28:54;;;;;;;20.00;4.70;;;;;;;8.50;70.57;100349.09;5027863;28;20029;-88
2020/12/20 20:31:24;;;;;;;14.55;4.50;;;;;;;8.40;71.14;100349.72;5027680;28;20026;-88
2020/12/20 20:33:54;;;;;;;13.60;3.83;;;;;;;8.42;72.00;100347.88;5025791;28;20052;-88
2020/12/20 20:36:28;;;;;;;18.67;3.88;;;;;;;8.36;72.06;100354.28;5013558;28;20033;-88
2020/12/20 20:38:54;;;;;;;21.90;5.47;;;;;;;8.21;70.77;100361.25;5014227;28;20140;-87
2020/12/20 20:41:20;;;;;;;16.40;4.85;;;;;;;8.24;70.73;100362.88;5014026;28;20348;-87
2020/12/20 20:43:45;;;;;;;10.90;4.28;;;;;;;8.27;71.58;100360.06;5013939;28;20444;-87
2020/12/20 20:46:15;;;;;;;16.55;3.67;;;;;;;8.31;71.60;100367.66;5014151;28;20156;-88
2020/12/20 20:48:44;;;;;;;17.10;4.03;;;;;;;8.36;72.30;100367.38;5014649;28;20022;-87
2020/12/20 20:51:16;;;;;;;18.75;4.00;;;;;;;8.41;72.26;100377.53;5014458;28;20026;-87
2020/12/20 20:53:46;;;;;;;19.27;3.75;;;;;;;8.42;71.49;100376.66;5012335;28;20022;-87
2020/12/20 20:56:20;;;;;;;18.33;3.60;;;;;;;8.46;72.02;100375.53;5014133;28;20384;-87
2020/12/20 20:58:48;;;;;;;16.88;3.72;;;;;;;8.46;71.21;100375.53;5013942;28;20083;-88
2020/12/20 21:01:14;;;;;;;20.73;4.03;;;;;;;8.34;71.26;100377.91;5010591;28;20022;-87
2020/12/20 21:03:39;;;;;;;13.38;3.92;;;;;;;8.36;72.20;100375.22;5012944;28;20130;-87
2020/12/20 21:06:04;;;;;;;16.98;5.38;;;;;;;8.50;72.31;100367.41;5014279;28;20164;-87
2020/12/20 21:08:30;;;;;;;11.95;3.42;;;;;;;8.49;71.79;100363.13;5013959;28;20033;-87
2020/12/20 21:10:55;;;;;;;13.13;3.97;;;;;;;8.46;72.15;100365.91;5013709;28;20165;-86
2020/12/20 21:13:25;;;;;;;21.42;4.68;;;;;;;8.47;71.51;100367.59;5014031;28;20065;-86
2020/12/20 21:15:52;;;;;;;11.23;3.55;;;;;;;8.44;71.60;100366.94;5014224;28;20030;-88
2020/12/20 21:18:19;;;;;;;13.65;3.70;;;;;;;8.43;70.90;100355.63;5013945;28;20045;-88
2020/12/20 21:20:45;;;;;;;15.82;4.35;;;;;;;8.39;71.60;100358.47;5013529;28;20053;-87
2020/12/20 21:23:11;;;;;;;29.17;11.95;;;;;;;8.04;71.38;100358.81;5012399;28;20033;-88
2020/12/20 21:25:37;;;;;;;26.75;11.05;;;;;;;8.21;72.51;100356.00;5013016;28;20487;-87
2020/12/20 21:28:02;;;;;;;23.55;7.53;;;;;;;8.24;72.27;100355.84;5013132;28;20053;-87
2020/12/20 21:30:27;;;;;;;19.58;7.38;;;;;;;8.20;72.53;100348.28;5013304;28;20083;-87
2020/12/20 21:32:53;;;;;;;18.25;8.05;;;;;;;8.16;72.06;100341.56;5009708;28;20030;-88
2020/12/20 21:35:19;;;;;;;21.40;6.30;;;;;;;8.19;72.70;100342.19;5013677;28;20492;-87
2020/12/20 21:37:44;;;;;;;18.10;4.72;;;;;;;8.22;72.70;100355.09;5013918;28;20033;-88
2020/12/20 21:40:10;;;;;;;19.83;5.18;;;;;;;8.13;72.01;100353.00;5012097;28;20018;-87
2020/12/20 21:42:35;;;;;;;17.83;5.47;;;;;;;8.20;72.80;100343.88;5013358;28;20034;-89
2020/12/20 21:45:00;;;;;;;20.13;4.03;;;;;;;8.27;72.87;100354.81;5011772;28;20026;-89
2020/12/20 21:47:26;;;;;;;15.52;4.90;;;;;;;8.14;71.75;100345.09;5012029;28;20025;-89
2020/12/20 21:49:51;;;;;;;15.48;4.75;;;;;;;8.23;72.43;100343.69;5013084;28;20022;-89
2020/12/20 21:52:17;;;;;;;17.33;4.38;;;;;;;8.28;73.13;100330.34;5013231;28;20115;-88
2020/12/20 21:54:42;;;;;;;15.80;4.10;;;;;;;8.39;72.08;100340.16;5011863;28;20133;-87
2020/12/20 21:57:07;;;;;;;14.27;3.92;;;;;;;8.26;72.13;100340.06;5012886;28;20045;-88
2020/12/20 21:59:33;;;;;;;11.68;3.90;;;;;;;8.27;73.37;100332.13;5010140;28;20092;-87
2020/12/20 22:01:58;;;;;;;9.77;3.42;;;;;;;8.29;72.86;100317.19;5011723;28;20029;-87
2020/12/20 22:04:23;;;;;;;15.15;3.95;;;;;;;8.32;72.73;100327.47;5012507;28;20034;-87
2020/12/20 22:06:49;;;;;;;12.40;2.90;;;;;;;8.41;73.38;100319.97;5011913;28;20022;-87
2020/12/20 22:09:15;;;;;;;15.13;3.10;;;;;;;8.45;72.99;100313.66;5012399;28;20461;-88
2020/12/20 22:11:40;;;;;;;6.95;2.72;;;;;;;8.47;72.94;100310.03;5011222;28;20033;-87
2020/12/20 22:14:05;;;;;;;13.10;3.88;;;;;;;8.54;73.07;100310.50;5012478;28;20105;-87
2020/12/20 22:16:32;;;;;;;16.00;3.40;;;;;;;8.50;72.78;100307.22;5012148;28;20424;-87
2020/12/20 22:18:58;;;;;;;15.23;3.58;;;;;;;8.49;71.86;100309.91;5010868;28;20366;-87
2020/12/20 22:21:23;;;;;;;13.45;2.78;;;;;;;8.57;72.22;100304.22;5012666;28;20125;-87
2020/12/20 22:23:48;;;;;;;9.90;3.22;;;;;;;8.59;72.57;100297.13;5012687;28;20121;-87
2020/12/20 22:26:14;;;;;;;14.25;2.92;;;;;;;8.60;73.04;100297.03;5010857;28;20092;-87
2020/12/20 22:28:39;;;;;;;15.82;2.88;;;;;;;8.59;73.40;100292.75;5012071;28;20025;-87
2020/12/20 22:31:04;;;;;;;12.95;2.72;;;;;;;8.49;73.66;100291.59;5012011;28;20060;-87
2020/12/20 22:33:30;;;;;;;9.00;2.80;;;;;;;8.61;73.70;100296.13;5011976;28;20053;-88
2020/12/20 22:35:55;;;;;;;10.23;2.90;;;;;;;8.65;73.62;100294.97;5010102;28;20058;-87
2020/12/20 22:38:20;;;;;;;10.85;2.38;;;;;;;8.70;73.10;100290.28;5011407;28;20033;-87
2020/12/20 22:40:46;;;;;;;16.88;2.65;;;;;;;8.70;73.58;100305.16;5009890;28;20461;-87